Hauptseite
METAR-TAF:

METAR-TAF

Flughäfen :

Flughafen Heringsdorf

Heringsdorf, Deutschland

Breite: 53-53N, Länge: 014-09E, Höhe: 28 m

Beobachtung

Neuester Wetterbericht von vor 5 Stunden und 55 Minuten, um 13:20 UTC
Wind 6 kt aus Süd, variierte zwischen Südost und Süd/Südwest
Temperatur 25°C
Luftfeuchtigkeit 34%
Luftdruck 1018 hPa
Sichtweite 10 km oder mehr
keine Wolken unter 1500 m und keine Kumulonimbus oder Gewitterwolken

METAR: EDAH 051320Z 18006KT 140V210 CAVOK 25/08 Q1018

Zeit: 21:15 (19:15 UTC)

Prognose

Neuester Wetterbericht von vor 5 Stunden und 15 Minuten, um 14:00 UTC
Gültige Prognose vom 05 um 15 UTC bis 05 um 24 UTC
Wind 7 kt aus Süd
Sichtweite 10 km oder mehr
keine Wolken unter 1500 m und keine Kumulonimbus oder Gewitterwolken

TAF: EDAH 051400Z 0515/0524 17007KT CAVOK

Wetterbeobachtungen und Prognosen von mehr als 4000 Flughäfen (METAR und TAF Bericht).

Die verfügbaren Stationen werden durch gelbe und rote Markierungen auf der Karte dargestellt.

Führen Sie die Maus auf sie, um den Namen der Station zu sehen.

Darauf klicken, um die Beobachtung von Wetterbeobachtungen und Prognosen zu sehen.

Um die Karte zu ändern : klicken Sie auf den grünen Tasten mit einem schwarzen Kreuz Zum Vergrößern, auf den grünen Button mit einem Gedankenstrich zu verkleinern, oder auf die grünen Pfeile für benachbarte Karten.


METAR-TAF: